Time;durP1;ratioP1;P1;durP2;ratioP2;P2;SDS_P1;SDS_P2;PMS_P1;PMS_P2;Temp;Humidity;BMP_temperature;BMP_pressure;BME280_temperature;BME280_humidity;BME280_pressure;Samples;Min_cycle;Max_cycle;Signal;HPM_P1;HPM_P2
2023/12/19 00:01:09;;;;;;;34.30;19.25;;;;;;;10.11;70.46;100715.33;1627457;88;21285;-85
2023/12/19 00:04:15;;;;;;;34.88;19.23;;;;;;;10.39;69.85;100715.99;1627412;88;21348;-84
2023/12/19 00:07:21;;;;;;;35.38;19.65;;;;;;;10.97;67.93;100717.36;1634653;86;21313;-84
2023/12/19 00:10:27;;;;;;;27.40;16.60;;;;;;;11.25;66.55;100715.67;1642238;87;21882;-84
2023/12/19 00:13:33;;;;;;;29.60;17.82;;;;;;;11.09;66.60;100712.91;1654011;86;21330;-84
2023/12/19 00:16:39;;;;;;;29.35;17.60;;;;;;;10.89;67.00;100715.97;1641969;87;21855;-84
2023/12/19 00:19:45;;;;;;;35.55;18.60;;;;;;;11.02;66.92;100716.00;1653982;86;21346;-84
2023/12/19 00:22:52;;;;;;;27.82;16.07;;;;;;;10.93;67.09;100713.76;1641971;87;21295;-84
2023/12/19 00:25:57;;;;;;;27.70;16.95;;;;;;;10.97;67.10;100710.52;1653934;85;21850;-84
2023/12/19 00:29:02;;;;;;;32.83;16.93;;;;;;;11.02;66.98;100709.16;1641958;87;21343;-85
2023/12/19 00:32:08;;;;;;;35.20;17.57;;;;;;;11.00;66.76;100710.67;1654193;86;21299;-84
2023/12/19 00:35:15;;;;;;;33.13;18.20;;;;;;;11.11;66.75;100716.35;1642041;87;21347;-84
2023/12/19 00:40:46;;;;;;;36.33;18.20;;;;;;;11.24;66.11;100720.78;1855610;76;28520;-84
2023/12/19 00:43:52;;;;;;;32.48;18.82;;;;;;;11.25;65.52;100717.05;1783423;80;21281;-83
2023/12/19 00:47:00;;;;;;;31.65;18.27;;;;;;;11.28;65.23;100718.05;1784530;80;21262;-84
2023/12/19 00:50:07;;;;;;;32.78;19.57;;;;;;;10.91;66.17;100722.63;1784515;80;21289;-83
2023/12/19 00:53:13;;;;;;;38.65;22.02;;;;;;;10.92;66.32;100725.73;1797506;79;21745;-83
2023/12/19 00:56:19;;;;;;;38.65;21.65;;;;;;;11.42;64.89;100731.05;1816578;79;21248;-83
2023/12/19 00:59:24;;;;;;;37.35;20.12;;;;;;;11.38;64.94;100729.68;1816700;79;21945;-83
2023/12/19 01:02:34;;;;;;;31.23;18.42;;;;;;;11.05;65.91;100726.59;1816331;79;21810;-83
2023/12/19 01:05:37;;;;;;;38.63;19.60;;;;;;;11.20;65.74;100726.28;1816142;79;21311;-83
2023/12/19 01:08:44;;;;;;;34.10;18.67;;;;;;;11.20;65.48;100730.39;1816264;79;21241;-83
2023/12/19 01:11:50;;;;;;;34.48;20.17;;;;;;;11.05;65.71;100739.76;1816235;79;21240;-83
2023/12/19 01:14:56;;;;;;;32.20;19.02;;;;;;;11.13;65.27;100738.92;1816341;79;21407;-83
2023/12/19 01:18:02;;;;;;;30.35;18.25;;;;;;;10.92;66.06;100744.38;1816326;79;21236;-83
2023/12/19 01:21:08;;;;;;;28.50;18.10;;;;;;;10.59;67.07;100743.95;1816531;79;21276;-83
2023/12/19 01:24:14;;;;;;;36.28;20.97;;;;;;;10.81;66.68;100736.47;1816565;79;21248;-83
2023/12/19 01:27:20;;;;;;;32.58;18.45;;;;;;;10.80;66.92;100742.12;1787159;79;21625;-83
2023/12/19 01:30:26;;;;;;;37.70;18.60;;;;;;;11.04;66.41;100746.78;1782371;80;21306;-83
2023/12/19 01:33:32;;;;;;;33.13;19.32;;;;;;;11.11;66.45;100749.20;1783469;80;21294;-83
2023/12/19 01:36:38;;;;;;;38.00;20.20;;;;;;;11.03;66.66;100745.92;1783139;80;22531;-84
2023/12/19 01:39:45;;;;;;;36.55;19.23;;;;;;;11.10;66.60;100745.58;1781738;80;21318;-84
2023/12/19 01:42:52;;;;;;;27.27;17.40;;;;;;;11.30;65.99;100747.50;1756785;80;21316;-84
2023/12/19 01:45:57;;;;;;;29.98;17.75;;;;;;;11.11;66.46;100736.88;1752670;82;21308;-83
2023/12/19 01:49:04;;;;;;;40.25;18.57;;;;;;;11.07;66.87;100736.36;1752448;82;21305;-83
2023/12/19 01:52:12;;;;;;;28.77;17.70;;;;;;;11.81;64.98;100736.32;1750571;80;21284;-83
2023/12/19 01:55:17;;;;;;;31.30;18.40;;;;;;;11.77;64.91;100745.42;1750524;80;21357;-83
2023/12/19 01:58:22;;;;;;;33.70;18.35;;;;;;;11.44;65.57;100741.34;1765097;81;21334;-83
2023/12/19 02:01:29;;;;;;;32.73;18.00;;;;;;;10.99;66.03;100742.66;1763600;81;21878;-83
2023/12/19 02:04:35;;;;;;;34.65;19.92;;;;;;;11.20;65.58;100735.87;1763738;81;21318;-83
2023/12/19 02:07:42;;;;;;;30.25;16.93;;;;;;;10.91;66.35;100734.95;1777434;80;21287;-84
2023/12/19 02:10:49;;;;;;;33.15;19.05;;;;;;;11.06;65.96;100738.76;1782330;80;21855;-83
2023/12/19 02:14:00;;;;;;;35.00;18.10;;;;;;;10.91;66.42;100724.85;1783070;80;21283;-83
2023/12/19 02:17:04;;;;;;;37.40;19.65;;;;;;;10.88;66.97;100725.20;1781465;80;21938;-83
2023/12/19 02:20:09;;;;;;;30.55;17.75;;;;;;;10.79;67.11;100731.69;1782542;80;21331;-83
2023/12/19 02:23:16;;;;;;;31.00;16.32;;;;;;;10.62;67.77;100727.19;1781934;80;21263;-83
2023/12/19 02:26:21;;;;;;;30.55;17.80;;;;;;;10.82;67.03;100721.78;1745268;82;21872;-83
2023/12/19 02:29:27;;;;;;;30.08;17.20;;;;;;;10.90;67.00;100720.41;1727199;83;21313;-83
2023/12/19 02:32:33;;;;;;;30.72;18.70;;;;;;;10.48;67.95;100728.67;1727454;83;21308;-83
2023/12/19 02:35:40;;;;;;;31.57;17.05;;;;;;;10.37;68.48;100724.89;1727365;83;21300;-83
2023/12/19 02:38:46;;;;;;;33.63;17.87;;;;;;;10.46;68.26;100722.02;1727439;83;21311;-83
2023/12/19 02:41:52;;;;;;;31.95;18.37;;;;;;;10.56;68.13;100727.86;1722336;83;21273;-83
2023/12/19 02:44:58;;;;;;;32.17;17.92;;;;;;;10.53;68.22;100726.81;1770483;81;21823;-83
2023/12/19 02:48:03;;;;;;;34.48;18.37;;;;;;;10.90;67.30;100728.63;1770444;81;21315;-83
2023/12/19 02:51:09;;;;;;;33.48;18.60;;;;;;;10.81;67.34;100715.09;1770010;81;21245;-83
2023/12/19 02:54:14;;;;;;;31.50;18.10;;;;;;;10.91;67.20;100715.27;1732274;81;21276;-83
2023/12/19 02:57:20;;;;;;;30.92;17.17;;;;;;;11.08;66.99;100712.58;1755587;81;21281;-83
2023/12/19 03:00:26;;;;;;;31.85;18.67;;;;;;;11.38;65.88;100725.57;1769969;81;21248;-83
2023/12/19 03:03:32;;;;;;;30.25;17.77;;;;;;;11.32;65.81;100724.05;1770216;81;21260;-84
2023/12/19 03:06:38;;;;;;;30.70;18.10;;;;;;;11.61;65.14;100716.66;1770259;81;21252;-84
2023/12/19 03:09:44;;;;;;;31.10;18.27;;;;;;;11.64;64.62;100728.14;1747702;81;21264;-83
2023/12/19 03:12:50;;;;;;;35.45;18.23;;;;;;;11.38;65.74;100728.83;1743731;81;21360;-83
2023/12/19 03:15:56;;;;;;;35.52;19.00;;;;;;;11.41;65.74;100731.23;1739643;82;21267;-83
2023/12/19 03:19:01;;;;;;;39.67;19.27;;;;;;;11.28;65.93;100726.27;1739624;82;21292;-83
2023/12/19 03:22:07;;;;;;;32.63;18.73;;;;;;;11.08;66.72;100723.52;1739357;82;21326;-83
2023/12/19 03:25:13;;;;;;;33.53;18.35;;;;;;;11.01;66.73;100728.83;1739653;81;21828;-84
2023/12/19 03:28:19;;;;;;;38.63;20.48;;;;;;;11.17;66.38;100737.56;1755048;81;21306;-83
2023/12/19 03:31:24;;;;;;;36.05;20.20;;;;;;;11.09;66.30;100742.50;1755358;81;21252;-83
2023/12/19 03:34:30;;;;;;;35.05;18.10;;;;;;;11.20;65.81;100735.87;1755181;81;21927;-83
2023/12/19 03:37:36;;;;;;;36.63;20.25;;;;;;;11.05;66.15;100738.91;1758686;81;21252;-83
2023/12/19 03:40:42;;;;;;;41.95;21.30;;;;;;;11.00;66.34;100731.20;1750059;81;21313;-83
2023/12/19 03:43:49;;;;;;;35.65;18.25;;;;;;;10.96;66.45;100747.12;1748943;81;21915;-83
2023/12/19 03:46:54;;;;;;;37.80;20.88;;;;;;;11.16;66.10;100747.66;1750628;82;21328;-83
2023/12/19 03:50:01;;;;;;;36.38;19.75;;;;;;;11.35;65.73;100742.89;1750689;82;21316;-84
2023/12/19 03:53:07;;;;;;;40.35;19.98;;;;;;;11.73;64.26;100748.17;1762592;80;21310;-84
2023/12/19 03:56:13;;;;;;;35.45;19.90;;;;;;;11.57;64.93;100745.42;1783238;80;21613;-83
2023/12/19 03:59:19;;;;;;;38.15;19.42;;;;;;;11.62;64.88;100742.54;1783244;80;21298;-83
2023/12/19 04:02:24;;;;;;;33.42;18.48;;;;;;;11.59;65.06;100742.88;1781828;80;21296;-83
2023/12/19 04:05:30;;;;;;;29.23;17.20;;;;;;;11.56;65.34;100746.47;1781387;80;21295;-83
2023/12/19 04:08:36;;;;;;;28.80;17.30;;;;;;;11.44;65.79;100745.45;1781527;80;21306;-83
2023/12/19 04:11:47;;;;;;;26.77;15.78;;;;;;;11.43;66.14;100743.75;1753015;80;21300;-84
2023/12/19 04:14:51;;;;;;;33.18;18.57;;;;;;;11.29;66.54;100744.40;1751884;82;21863;-83
2023/12/19 04:17:57;;;;;;;28.35;18.02;;;;;;;11.47;66.07;100750.56;1752001;82;21297;-83
2023/12/19 04:21:03;;;;;;;32.53;17.32;;;;;;;11.29;66.50;100743.03;1752152;82;21313;-84
2023/12/19 04:24:08;;;;;;;31.93;17.32;;;;;;;11.32;66.50;100739.96;1750547;82;21872;-84
2023/12/19 04:27:13;;;;;;;30.85;16.87;;;;;;;11.37;66.18;100737.56;1774542;80;21862;-83
2023/12/19 04:30:19;;;;;;;32.05;17.45;;;;;;;10.72;67.99;100736.10;1781600;80;21275;-83
2023/12/19 04:33:25;;;;;;;31.68;17.77;;;;;;;10.53;68.73;100725.45;1781700;80;21295;-83
2023/12/19 04:36:31;;;;;;;32.42;18.25;;;;;;;10.31;69.61;100722.31;1782843;80;21319;-84
2023/12/19 04:39:37;;;;;;;31.75;17.55;;;;;;;10.71;69.08;100728.92;1782900;80;21822;-83
2023/12/19 04:42:43;;;;;;;34.53;18.98;;;;;;;10.87;68.12;100727.61;1782491;80;21327;-84
2023/12/19 04:45:49;;;;;;;30.97;18.30;;;;;;;10.79;68.25;100733.05;1782861;80;21287;-84
2023/12/19 04:48:55;;;;;;;32.90;18.23;;;;;;;11.15;66.88;100736.86;1783209;80;21311;-83
2023/12/19 04:52:02;;;;;;;30.68;18.73;;;;;;;10.83;67.68;100749.48;1782993;80;21588;-83
2023/12/19 04:55:09;;;;;;;30.55;17.12;;;;;;;10.61;68.00;100750.95;1781581;80;21271;-83
2023/12/19 04:58:15;;;;;;;30.77;16.65;;;;;;;10.42;69.00;100756.70;1744969;82;21346;-83
2023/12/19 05:01:21;;;;;;;32.53;18.60;;;;;;;10.56;68.80;100760.69;1746532;82;22546;-83
2023/12/19 05:04:27;;;;;;;31.35;18.07;;;;;;;10.74;67.93;100766.91;1746454;82;21863;-83
2023/12/19 05:07:34;;;;;;;30.90;17.42;;;;;;;10.79;67.89;100771.88;1746304;82;21888;-83
2023/12/19 05:10:39;;;;;;;31.68;17.27;;;;;;;10.75;68.28;100768.61;1746270;80;21292;-83
2023/12/19 05:13:46;;;;;;;32.88;17.62;;;;;;;11.01;67.49;100774.00;1750775;82;21329;-83
2023/12/19 05:16:53;;;;;;;29.67;16.65;;;;;;;10.94;67.74;100769.69;1750849;81;21321;-83
2023/12/19 05:20:00;;;;;;;32.40;18.05;;;;;;;11.35;66.74;100772.50;1752156;82;21332;-83
2023/12/19 05:23:08;;;;;;;31.55;18.40;;;;;;;11.37;66.07;100779.16;1750735;82;21320;-83
2023/12/19 05:26:08;;;;;;;27.77;14.87;;;;;;;10.96;67.65;100781.83;1750536;81;21974;-83
2023/12/19 05:29:01;;;;;;;33.18;17.05;;;;;;;10.27;69.35;100778.34;1750663;82;21879;-84
2023/12/19 05:31:47;;;;;;;35.35;18.32;;;;;;;10.14;70.24;100786.08;1751935;82;21883;-83
2023/12/19 05:34:40;;;;;;;31.42;17.65;;;;;;;10.05;70.42;100782.95;1750969;82;21328;-83
2023/12/19 05:37:28;;;;;;;35.75;19.12;;;;;;;9.89;71.57;100791.40;1752225;82;21852;-83
2023/12/19 05:40:20;;;;;;;33.23;18.50;;;;;;;10.06;71.07;100795.08;1778683;80;22518;-83
2023/12/19 05:43:08;;;;;;;35.75;19.85;;;;;;;10.09;70.90;100796.14;1783328;80;21854;-83
2023/12/19 05:46:14;;;;;;;37.30;21.07;;;;;;;10.27;70.22;100796.63;1769272;80;21921;-83
2023/12/19 05:49:19;;;;;;;39.25;20.88;;;;;;;10.18;70.32;100806.61;1769157;81;22620;-83
2023/12/19 05:52:25;;;;;;;36.25;20.20;;;;;;;10.29;70.25;100804.13;1769189;81;21295;-83
2023/12/19 05:55:32;;;;;;;36.30;20.17;;;;;;;10.13;70.70;100803.00;1769247;81;21292;-83
2023/12/19 05:58:37;;;;;;;39.53;21.37;;;;;;;10.14;71.03;100788.81;1760369;81;21289;-84
2023/12/19 06:01:50;;;;;;;37.88;21.37;;;;;;;10.17;71.38;100787.99;1738233;81;21296;-84
2023/12/19 06:04:56;;;;;;;35.17;20.52;;;;;;;10.18;71.21;100795.68;1764361;81;22615;-84
2023/12/19 06:08:02;;;;;;;41.05;21.70;;;;;;;10.30;71.01;100793.54;1762602;81;21293;-84
2023/12/19 06:11:09;;;;;;;39.25;20.88;;;;;;;10.34;70.80;100790.83;1747701;79;21307;-83
2023/12/19 06:14:14;;;;;;;47.62;21.15;;;;;;;10.40;70.83;100798.41;1765963;81;21288;-84
2023/12/19 06:17:20;;;;;;;36.88;21.75;;;;;;;11.00;68.98;100800.48;1727416;83;21362;-83
2023/12/19 06:20:25;;;;;;;36.38;20.02;;;;;;;11.61;66.63;100805.19;1738562;81;21301;-84
2023/12/19 06:23:31;;;;;;;43.38;23.40;;;;;;;11.53;66.51;100799.73;1752422;81;21669;-84
2023/12/19 06:26:36;;;;;;;40.83;22.58;;;;;;;11.67;66.58;100799.56;1709124;83;21311;-84
2023/12/19 06:29:41;;;;;;;39.53;21.00;;;;;;;11.51;66.90;100806.73;1746525;81;21303;-84
2023/12/19 06:32:47;;;;;;;42.30;22.50;;;;;;;11.46;67.30;100806.39;1724156;81;21267;-83
2023/12/19 06:35:57;;;;;;;41.35;21.82;;;;;;;11.52;67.17;100810.33;1747571;79;21282;-84
2023/12/19 06:39:03;;;;;;;38.02;22.22;;;;;;;11.68;66.67;100813.60;1736656;81;21932;-84
2023/12/19 06:42:08;;;;;;;37.73;20.75;;;;;;;11.70;66.43;100812.91;1742258;81;21309;-84
2023/12/19 06:45:15;;;;;;;39.70;21.73;;;;;;;11.56;66.81;100815.81;1748270;81;22069;-84
2023/12/19 06:48:23;;;;;;;42.00;20.85;;;;;;;11.74;66.11;100812.91;1770622;79;21616;-84
2023/12/19 06:51:40;;;;;;;37.80;21.37;;;;;;;11.60;66.64;100812.22;1770562;79;21299;-84
2023/12/19 06:54:51;;;;;;;37.20;20.92;;;;;;;11.50;67.05;100822.83;1769722;79;21282;-84
2023/12/19 06:57:58;;;;;;;43.90;22.20;;;;;;;11.52;67.04;100831.72;1734783;81;21270;-84
2023/12/19 07:01:06;;;;;;;39.80;22.13;;;;;;;11.45;67.58;100829.34;1754209;79;21377;-84
2023/12/19 07:04:12;;;;;;;44.48;22.58;;;;;;;11.58;67.30;100834.84;1759204;79;21338;-84
2023/12/19 07:07:22;;;;;;;39.45;23.02;;;;;;;11.55;67.28;100825.06;1722143;81;21298;-84
2023/12/19 07:10:27;;;;;;;36.00;20.82;;;;;;;11.66;67.14;100821.12;1757956;79;21318;-84
2023/12/19 07:13:35;;;;;;;41.50;22.45;;;;;;;11.51;67.40;100819.58;1718152;82;21360;-84
2023/12/19 07:16:51;;;;;;;43.90;23.77;;;;;;;11.45;67.25;100819.75;1776905;79;21316;-84
2023/12/19 07:19:52;;;;;;;44.63;22.05;;;;;;;11.48;67.14;100823.53;1749908;80;21337;-84
2023/12/19 07:22:58;;;;;;;52.65;24.90;;;;;;;11.45;67.56;100817.01;1705519;82;21292;-84
2023/12/19 07:26:03;;;;;;;44.98;24.55;;;;;;;11.56;66.67;100825.91;1763614;79;21897;-84
2023/12/19 07:29:10;;;;;;;62.03;28.17;;;;;;;11.59;66.87;100820.95;1766149;80;22316;-84
2023/12/19 07:32:17;;;;;;;50.52;25.00;;;;;;;11.78;66.59;100825.24;1760418;80;21319;-84
2023/12/19 07:35:22;;;;;;;45.85;24.05;;;;;;;11.80;66.79;100831.39;1727164;82;21298;-84
2023/12/19 07:38:30;;;;;;;50.40;23.45;;;;;;;11.45;67.89;100839.44;1743816;80;21279;-85
2023/12/19 07:41:36;;;;;;;44.90;23.57;;;;;;;11.35;68.15;100849.19;1721968;82;21286;-84
2023/12/19 07:44:42;;;;;;;47.95;24.55;;;;;;;11.06;68.76;100846.04;1761329;80;21355;-85
2023/12/19 07:47:52;;;;;;;38.98;21.42;;;;;;;10.97;68.87;100851.48;1726110;82;21318;-85
2023/12/19 07:50:59;;;;;;;41.18;21.87;;;;;;;10.94;69.05;100860.01;1757339;79;21296;-84
2023/12/19 07:54:06;;;;;;;41.28;22.00;;;;;;;10.89;69.22;100858.28;1750411;81;21321;-84
2023/12/19 07:57:13;;;;;;;48.80;24.32;;;;;;;11.29;68.29;100860.78;1752199;81;21287;-84
2023/12/19 08:00:19;;;;;;;51.35;24.57;;;;;;;11.36;67.75;100854.14;1745154;81;21275;-84
2023/12/19 08:03:24;;;;;;;50.40;23.80;;;;;;;11.29;67.94;100857.19;1764732;80;21287;-84
2023/12/19 08:06:31;;;;;;;49.05;23.25;;;;;;;11.45;67.17;100858.61;1749984;80;21871;-84
2023/12/19 08:09:38;;;;;;;45.80;23.42;;;;;;;11.33;67.36;100852.58;1756734;80;21878;-84
2023/12/19 08:12:47;;;;;;;32.95;17.45;;;;;;;11.36;67.22;100862.36;1752700;80;21957;-84
2023/12/19 08:15:56;;;;;;;47.33;22.93;;;;;;;11.51;67.05;100856.55;1749984;81;21277;-84
2023/12/19 08:19:03;;;;;;;30.20;15.78;;;;;;;11.54;66.67;100854.01;1757310;81;21331;-84
2023/12/19 08:22:08;;;;;;;44.15;22.62;;;;;;;11.47;66.96;100851.92;1760074;80;21272;-84
2023/12/19 08:25:14;;;;;;;41.92;22.30;;;;;;;11.40;67.22;100845.42;1758150;81;21336;-85
2023/12/19 08:28:20;;;;;;;42.93;22.55;;;;;;;11.35;67.78;100846.96;1756141;81;21286;-84
2023/12/19 08:31:27;;;;;;;40.78;22.52;;;;;;;11.65;67.18;100841.33;1751908;81;21811;-84
2023/12/19 08:34:34;;;;;;;42.00;21.60;;;;;;;11.88;66.77;100836.91;1764780;80;21647;-84
2023/12/19 08:37:40;;;;;;;41.42;22.55;;;;;;;11.86;66.54;100829.39;1748786;81;21363;-84
2023/12/19 08:40:46;;;;;;;37.48;19.92;;;;;;;11.76;66.90;100831.39;1754595;81;21292;-84
2023/12/19 08:43:52;;;;;;;40.25;21.42;;;;;;;11.84;66.97;100820.47;1759165;81;21244;-84
2023/12/19 08:46:58;;;;;;;37.00;20.15;;;;;;;11.71;67.45;100820.09;1749741;81;21288;-84
2023/12/19 08:50:07;;;;;;;40.30;21.17;;;;;;;11.63;67.66;100811.89;1765421;80;21279;-84
2023/12/19 08:53:13;;;;;;;42.65;22.90;;;;;;;11.37;67.89;100808.77;1729172;82;21255;-84
2023/12/19 08:56:21;;;;;;;42.30;21.40;;;;;;;11.55;67.91;100814.62;1735399;81;21266;-84
2023/12/19 08:59:27;;;;;;;42.67;22.32;;;;;;;11.71;67.23;100811.35;1714620;82;21331;-84
2023/12/19 09:02:32;;;;;;;43.28;22.60;;;;;;;11.95;66.75;100808.28;1702962;83;22417;-84
2023/12/19 09:05:39;;;;;;;40.25;21.77;;;;;;;12.17;66.17;100802.60;1725624;82;21289;-83
2023/12/19 09:08:44;;;;;;;38.65;22.80;;;;;;;11.95;66.68;100787.23;1732266;81;21935;-83
2023/12/19 09:11:50;;;;;;;36.38;20.43;;;;;;;12.08;66.73;100780.34;1736315;82;21787;-83
2023/12/19 09:14:56;;;;;;;39.25;21.10;;;;;;;12.05;66.83;100772.48;1733244;82;21889;-84
2023/12/19 09:18:03;;;;;;;35.68;20.32;;;;;;;11.85;66.92;100756.91;1737815;82;21279;-84
2023/12/19 09:21:10;;;;;;;39.80;20.55;;;;;;;11.95;66.49;100752.09;1727305;81;21276;-84
2023/12/19 09:24:18;;;;;;;40.75;22.65;;;;;;;12.05;66.63;100750.55;1735187;81;21260;-84
2023/12/19 09:27:25;;;;;;;37.75;20.23;;;;;;;12.00;66.59;100743.70;1735397;80;21868;-84
2023/12/19 09:30:30;;;;;;;49.18;22.02;;;;;;;11.81;66.94;100741.31;1720213;82;21851;-85
2023/12/19 09:33:39;;;;;;;37.67;19.67;;;;;;;11.57;67.55;100738.58;1709791;82;21278;-84
2023/12/19 09:36:45;;;;;;;37.30;19.73;;;;;;;11.69;67.20;100748.17;1707176;82;21274;-84
2023/12/19 09:39:55;;;;;;;35.90;21.15;;;;;;;11.58;67.44;100746.65;1719265;82;21259;-84
2023/12/19 09:43:04;;;;;;;38.55;21.48;;;;;;;11.35;68.21;100745.11;1731555;81;21319;-84
2023/12/19 09:46:10;;;;;;;31.55;18.92;;;;;;;11.41;67.97;100747.67;1728737;81;21274;-84
2023/12/19 09:49:17;;;;;;;33.45;19.75;;;;;;;11.39;67.62;100741.52;1731059;82;21275;-84
2023/12/19 09:52:24;;;;;;;34.05;20.02;;;;;;;11.20;68.11;100739.45;1724246;82;21922;-84
2023/12/19 09:55:31;;;;;;;30.85;20.05;;;;;;;11.16;68.28;100733.97;1725815;82;21340;-84
2023/12/19 09:58:38;;;;;;;25.17;16.67;;;;;;;11.28;68.01;100727.63;1724726;82;21303;-84
2023/12/19 10:01:44;;;;;;;24.87;16.93;;;;;;;11.13;68.43;100714.28;1708523;81;22867;-84
2023/12/19 10:04:51;;;;;;;32.35;18.32;;;;;;;11.15;68.55;100708.11;1720692;82;21331;-84
2023/12/19 10:07:58;;;;;;;34.95;20.43;;;;;;;11.17;68.57;100701.45;1729817;82;21304;-84
2023/12/19 10:11:07;;;;;;;33.08;19.67;;;;;;;11.08;68.97;100690.16;1716261;82;21639;-84
2023/12/19 10:14:18;;;;;;;35.30;19.75;;;;;;;11.10;69.19;100692.71;1710604;82;21898;-84
2023/12/19 10:17:24;;;;;;;34.13;20.90;;;;;;;11.19;68.91;100697.16;1716513;81;21364;-84
2023/12/19 10:20:30;;;;;;;31.00;19.98;;;;;;;11.11;69.17;100697.19;1726928;82;22455;-84
2023/12/19 10:23:36;;;;;;;35.58;19.85;;;;;;;11.04;69.47;100687.93;1721931;81;21953;-84
2023/12/19 10:26:42;;;;;;;34.03;18.98;;;;;;;11.23;68.79;100680.23;1725923;82;21891;-84
2023/12/19 10:29:48;;;;;;;30.50;18.40;;;;;;;11.32;68.50;100682.45;1718640;82;21352;-84
2023/12/19 10:32:53;;;;;;;35.55;21.37;;;;;;;11.40;68.40;100681.08;1708984;82;21313;-84
2023/12/19 10:35:59;;;;;;;35.80;20.68;;;;;;;11.31;68.50;100669.80;1735868;81;21254;-84
2023/12/19 10:39:07;;;;;;;33.55;19.85;;;;;;;11.37;68.29;100669.09;1726719;81;21849;-83
2023/12/19 10:42:13;;;;;;;31.52;19.30;;;;;;;11.33;68.45;100667.72;1722654;82;21885;-84
2023/12/19 10:45:19;;;;;;;34.40;21.17;;;;;;;11.40;68.12;100664.65;1726477;81;21321;-84
2023/12/19 10:48:25;;;;;;;37.08;22.52;;;;;;;11.20;68.38;100662.79;1724672;82;21283;-83
2023/12/19 10:51:41;;;;;;;36.13;21.15;;;;;;;11.40;67.87;100656.43;1725153;82;21304;-83
2023/12/19 10:54:45;;;;;;;34.27;20.68;;;;;;;11.39;67.95;100653.36;1728070;81;22327;-83
2023/12/19 10:57:53;;;;;;;41.77;23.38;;;;;;;11.29;68.48;100659.51;1728396;82;21267;-83
2023/12/19 11:00:59;;;;;;;39.18;22.50;;;;;;;11.24;68.77;100659.17;1708847;82;21351;-84
2023/12/19 11:04:07;;;;;;;42.98;24.15;;;;;;;11.26;68.88;100656.62;1716384;82;21919;-84
2023/12/19 11:07:17;;;;;;;36.40;21.73;;;;;;;11.30;68.92;100653.03;1720875;82;21310;-84
2023/12/19 11:10:22;;;;;;;41.28;22.73;;;;;;;11.22;69.29;100647.55;1717793;82;21363;-84
2023/12/19 11:13:27;;;;;;;41.37;23.62;;;;;;;11.07;69.79;100651.50;1723092;82;22287;-84
2023/12/19 11:16:38;;;;;;;41.37;23.30;;;;;;;11.08;69.74;100657.82;1709321;81;21296;-84
2023/12/19 11:19:35;;;;;;;41.95;24.55;;;;;;;11.11;69.71;100654.23;1716539;82;21319;-84
2023/12/19 11:23:17;;;;;;;41.48;24.20;;;;;;;11.08;69.55;100650.46;1718630;81;21315;-84
2023/12/19 11:26:39;;;;;;;39.30;23.67;;;;;;;10.96;69.79;100659.55;1715789;82;22233;-84
2023/12/19 11:29:57;;;;;;;39.60;23.83;;;;;;;11.04;69.41;100646.35;1678867;82;21195;-84
2023/12/19 11:33:02;;;;;;;35.52;21.70;;;;;;;10.93;69.92;100645.34;1719408;81;22297;-84
2023/12/19 11:36:19;;;;;;;36.55;22.98;;;;;;;11.04;69.70;100646.87;1705528;82;21296;-84
2023/12/19 11:39:34;;;;;;;44.25;25.92;;;;;;;10.97;69.52;100648.93;1689812;82;21324;-83
2023/12/19 11:42:50;;;;;;;39.55;23.95;;;;;;;10.97;70.49;100633.87;1718985;82;21385;-84
2023/12/19 11:45:56;;;;;;;44.70;24.70;;;;;;;10.73;71.20;100632.50;1703098;82;21295;-84
2023/12/19 11:49:04;;;;;;;46.85;24.57;;;;;;;10.77;71.61;100633.84;1709690;82;21189;-84
2023/12/19 11:52:13;;;;;;;40.55;22.35;;;;;;;10.75;71.19;100626.34;1714435;81;22278;-84
2023/12/19 11:55:24;;;;;;;39.35;21.77;;;;;;;11.14;70.33;100614.69;1707295;82;22330;-84
2023/12/19 11:58:31;;;;;;;38.17;21.40;;;;;;;10.95;70.68;100611.28;1758699;80;21270;-84
2023/12/19 12:01:47;;;;;;;41.00;21.97;;;;;;;11.15;70.06;100610.92;1717659;82;21358;-84
2023/12/19 12:04:55;;;;;;;35.13;22.45;;;;;;;11.48;68.87;100609.86;1747783;81;21303;-84
2023/12/19 12:08:04;;;;;;;38.75;22.35;;;;;;;11.35;69.18;100624.61;1759462;80;21290;-84
2023/12/19 12:11:14;;;;;;;33.73;20.72;;;;;;;11.62;68.31;100637.05;1760483;80;22325;-84
2023/12/19 12:14:20;;;;;;;36.00;21.23;;;;;;;11.54;68.34;100632.11;1714694;82;21305;-84
2023/12/19 12:17:32;;;;;;;36.95;21.97;;;;;;;11.46;68.76;100623.37;1761686;80;21300;-84
2023/12/19 12:20:39;;;;;;;38.80;22.48;;;;;;;11.59;68.28;100613.25;1758514;80;21295;-84
2023/12/19 12:23:44;;;;;;;34.78;23.90;;;;;;;11.45;68.75;100607.46;1720112;82;21279;-85
2023/12/19 12:26:50;;;;;;;44.75;23.25;;;;;;;11.66;68.26;100609.61;1751545;80;21299;-84
2023/12/19 12:29:56;;;;;;;37.20;22.82;;;;;;;11.64;68.08;100621.28;1750485;81;21299;-85
2023/12/19 12:33:04;;;;;;;40.78;25.15;;;;;;;11.40;68.57;100615.35;1761612;81;21292;-84
2023/12/19 12:36:16;;;;;;;46.53;24.98;;;;;;;11.41;68.97;100601.98;1718299;82;21844;-84
2023/12/19 12:39:29;;;;;;;47.60;25.37;;;;;;;11.04;70.18;100603.07;1766290;81;21973;-85
2023/12/19 12:42:35;;;;;;;40.25;24.18;;;;;;;11.19;69.89;100601.34;1756763;81;21351;-84
2023/12/19 12:45:43;;;;;;;39.75;24.37;;;;;;;11.04;70.66;100599.81;1754065;81;21900;-84
2023/12/19 12:49:05;;;;;;;43.17;23.62;;;;;;;10.79;71.40;100612.66;1762053;80;21982;-84
2023/12/19 12:52:15;;;;;;;;;;;;;;;10.87;70.94;100599.47;1714587;82;21347;-85
2023/12/19 12:55:23;;;;;;;43.05;23.55;;;;;;;10.82;70.99;100591.81;1699700;83;20297;-85
2023/12/19 12:58:27;;;;;;;44.73;23.22;;;;;;;11.06;70.14;100592.30;1693111;83;21301;-83
2023/12/19 13:01:34;;;;;;;33.67;21.37;;;;;;;11.06;69.90;100582.73;1750612;81;21355;-84
2023/12/19 13:04:40;;;;;;;40.25;22.45;;;;;;;11.07;69.96;100584.95;1748566;81;21289;-84
2023/12/19 13:07:51;;;;;;;31.55;20.48;;;;;;;11.29;69.01;100588.30;1754688;81;21303;-85
2023/12/19 13:10:58;;;;;;;32.65;20.40;;;;;;;11.16;69.15;100583.39;1753273;81;21377;-84
2023/12/19 13:14:03;;;;;;;33.55;20.30;;;;;;;10.97;69.46;100583.24;1747479;81;21276;-84
2023/12/19 13:17:09;;;;;;;32.85;19.95;;;;;;;10.98;69.58;100586.31;1702364;83;21316;-84
2023/12/19 13:20:18;;;;;;;34.15;20.40;;;;;;;11.04;69.34;100592.98;1762025;80;21366;-84
2023/12/19 13:23:23;;;;;;;31.00;20.60;;;;;;;10.98;69.43;100597.27;1720984;82;21290;-84
2023/12/19 13:26:35;;;;;;;31.87;20.20;;;;;;;10.92;69.28;100597.95;1761072;81;22393;-85
2023/12/19 13:29:41;;;;;;;30.52;19.15;;;;;;;10.99;68.90;100592.64;1710648;82;21358;-84
2023/12/19 13:32:48;;;;;;;27.80;19.05;;;;;;;11.09;68.68;100581.50;1740737;81;21421;-83
2023/12/19 13:38:24;;;;;;;31.10;17.48;;;;;;;11.06;68.90;100567.67;1846005;76;28089;-84
2023/12/19 13:41:30;;;;;;;27.80;18.50;;;;;;;11.15;68.40;100566.63;1746135;81;21328;-83
2023/12/19 13:44:36;;;;;;;28.45;17.98;;;;;;;11.06;68.10;100562.72;1746916;82;21350;-83
2023/12/19 13:47:41;;;;;;;26.65;17.85;;;;;;;10.86;68.75;100560.31;1749257;80;21326;-84
2023/12/19 13:50:48;;;;;;;27.90;16.75;;;;;;;10.59;69.60;100560.69;1768249;79;21885;-84
2023/12/19 13:53:54;;;;;;;31.10;16.50;;;;;;;11.14;68.23;100565.41;1785350;79;22343;-83
2023/12/19 13:56:59;;;;;;;27.07;17.05;;;;;;;11.12;67.86;100574.33;1758152;80;21300;-84
2023/12/19 14:00:07;;;;;;;28.42;16.32;;;;;;;10.90;68.52;100586.31;1776161;80;21310;-83
2023/12/19 14:03:15;;;;;;;31.80;16.17;;;;;;;10.48;69.84;100591.41;1762688;79;21878;-83
2023/12/19 14:06:22;;;;;;;35.20;17.15;;;;;;;10.90;68.48;100584.94;1741573;80;21957;-83
2023/12/19 14:09:31;;;;;;;24.30;16.12;;;;;;;10.69;69.23;100576.41;1755405;81;21381;-83
2023/12/19 14:12:37;;;;;;;25.40;15.18;;;;;;;10.14;70.84;100569.63;1758868;80;22414;-83